createdAt,value
2019-02-26T00:03:31.441Z,84.58
2019-02-26T00:08:37.034Z,85.19
2019-02-26T00:13:43.198Z,85.14
2019-02-26T00:18:48.482Z,85.46
2019-02-26T00:23:53.725Z,85.35
2019-02-26T00:28:59.792Z,85.54
2019-02-26T00:34:08.161Z,84.96
2019-02-26T00:39:12.901Z,84.53
2019-02-26T00:44:18.616Z,84.38
2019-02-26T00:49:25.867Z,84.55
2019-02-26T00:54:33.858Z,84.81
2019-02-26T00:59:41.249Z,85.14
2019-02-26T01:04:46.732Z,85.25
2019-02-26T01:09:54.660Z,85.17
2019-02-26T01:15:02.574Z,85.25
2019-02-26T01:20:09.906Z,85.93
2019-02-26T01:25:17.742Z,86.68
2019-02-26T01:30:25.854Z,87.01
2019-02-26T01:35:30.747Z,87.14
2019-02-26T01:40:39.405Z,86.92
2019-02-26T01:45:44.017Z,86.12
2019-02-26T01:50:52.042Z,85.93
2019-02-26T01:55:57.006Z,86.69
2019-02-26T02:01:02.256Z,87.31
2019-02-26T02:06:10.611Z,88.17
2019-02-26T02:11:14.466Z,88.82
2019-02-26T02:16:19.736Z,89.18
2019-02-26T02:21:25.982Z,88.23
2019-02-26T02:26:32.140Z,87.33
2019-02-26T02:31:38.340Z,86.51
2019-02-26T02:36:44.305Z,85.94
2019-02-26T02:41:51.747Z,85.31
2019-02-26T02:46:58.371Z,85.01
2019-02-26T02:52:04.164Z,85.08
2019-02-26T02:57:10.394Z,85.36
2019-02-26T03:02:17.652Z,86.00
2019-02-26T03:07:23.554Z,86.37
2019-02-26T03:12:29.553Z,85.93
2019-02-26T03:17:34.858Z,86.69
2019-02-26T03:22:43.194Z,87.40
2019-02-26T03:27:47.063Z,87.31
2019-02-26T03:32:58.555Z,87.47
2019-02-26T03:38:01.322Z,87.98
2019-02-26T03:43:07.634Z,88.40
2019-02-26T03:48:12.922Z,89.79
2019-02-26T03:53:18.191Z,89.60
2019-02-26T03:58:23.376Z,89.07
2019-02-26T04:03:29.676Z,88.93
2019-02-26T04:08:35.541Z,88.62
2019-02-26T04:13:42.914Z,88.41
2019-02-26T04:18:51.068Z,87.70
2019-02-26T04:23:54.833Z,87.96
2019-02-26T04:29:22.182Z,88.07
2019-02-26T04:34:38.161Z,88.32
2019-02-26T04:39:49.581Z,88.29
2019-02-26T04:45:14.558Z,88.27
2019-02-26T04:50:23.076Z,88.20
2019-02-26T04:55:29.139Z,87.77
2019-02-26T05:00:37.978Z,86.69
2019-02-26T05:05:40.812Z,86.94
2019-02-26T05:10:46.981Z,87.37
2019-02-26T05:15:53.063Z,87.84
2019-02-26T05:20:59.308Z,88.13
2019-02-26T05:26:08.098Z,88.54
2019-02-26T05:31:14.473Z,88.67
2019-02-26T05:36:19.281Z,89.04
2019-02-26T05:41:24.562Z,89.39
2019-02-26T05:46:30.001Z,89.59
2019-02-26T05:51:36.060Z,89.87
2019-02-26T05:56:43.490Z,90.22
2019-02-26T06:01:52.553Z,90.30
2019-02-26T06:06:57.212Z,90.86
2019-02-26T06:12:03.085Z,91.17
2019-02-26T06:17:10.519Z,91.74
2019-02-26T06:22:18.171Z,91.45
2019-02-26T06:27:24.776Z,91.51
2019-02-26T06:32:31.975Z,91.58
2019-02-26T06:37:37.880Z,91.38
2019-02-26T06:42:43.092Z,91.70
2019-02-26T06:47:50.735Z,91.94
2019-02-26T06:52:55.297Z,92.32
2019-02-26T06:58:18.185Z,92.42
2019-02-26T07:03:24.806Z,92.36
2019-02-26T07:08:30.988Z,92.60
2019-02-26T07:13:38.578Z,92.53
2019-02-26T07:18:43.280Z,92.03
2019-02-26T07:23:48.535Z,92.32
2019-02-26T07:28:53.894Z,92.25
2019-02-26T07:34:01.355Z,92.36
2019-02-26T07:39:10.278Z,91.84
2019-02-26T07:44:18.119Z,91.39
2019-02-26T07:49:22.187Z,90.51
2019-02-26T07:54:28.856Z,90.18
2019-02-26T07:59:34.873Z,89.92
2019-02-26T08:04:43.512Z,90.34
2019-02-26T08:09:51.382Z,89.85
2019-02-26T08:14:56.602Z,90.62
2019-02-26T08:20:04.274Z,91.91
2019-02-26T08:25:10.005Z,91.55
2019-02-26T08:30:20.638Z,92.00
2019-02-26T08:35:24.142Z,90.51
2019-02-26T08:40:29.590Z,90.89
2019-02-26T08:45:35.006Z,91.59
2019-02-26T08:50:42.134Z,91.65
2019-02-26T08:55:47.283Z,91.89
2019-02-26T09:00:52.627Z,91.94
2019-02-26T09:06:10.181Z,91.58
2019-02-26T09:11:06.311Z,90.22
2019-02-26T09:16:11.720Z,89.56
2019-02-26T09:21:18.125Z,89.02
2019-02-26T09:26:24.888Z,89.08
2019-02-26T09:31:30.237Z,87.14
2019-02-26T09:36:35.486Z,84.67
2019-02-26T09:41:42.608Z,82.44
2019-02-26T09:46:50.742Z,79.93
2019-02-26T09:51:56.821Z,80.34
2019-02-26T09:57:02.974Z,78.28
2019-02-26T10:02:08.270Z,76.46
2019-02-26T10:07:14.398Z,75.95
2019-02-26T10:12:21.102Z,75.94
2019-02-26T10:17:26.390Z,77.07
2019-02-26T10:22:33.202Z,74.67
2019-02-26T10:27:40.586Z,72.81
2019-02-26T10:32:46.871Z,74.69
2019-02-26T10:37:54.013Z,75.57
2019-02-26T10:43:01.512Z,72.95
2019-02-26T10:48:06.666Z,70.26
2019-02-26T10:53:14.186Z,68.60
2019-02-26T10:58:19.121Z,69.33
2019-02-26T11:03:24.361Z,70.91
2019-02-26T11:08:32.228Z,67.83
2019-02-26T11:13:37.300Z,66.61
2019-02-26T11:18:44.955Z,67.41
2019-02-26T11:23:51.636Z,68.38
2019-02-26T11:28:57.031Z,68.02
2019-02-26T11:34:04.013Z,64.64
2019-02-26T11:39:12.705Z,64.17
2019-02-26T11:44:20.569Z,63.08
2019-02-26T11:49:25.073Z,60.45
2019-02-26T11:54:32.666Z,60.38
2019-02-26T11:59:38.600Z,56.69
2019-02-26T12:04:44.821Z,57.55
2019-02-26T12:09:50.131Z,57.09
2019-02-26T12:14:55.531Z,58.13
2019-02-26T12:20:00.950Z,55.36
2019-02-26T12:25:08.924Z,56.24
2019-02-26T12:30:18.126Z,54.25
2019-02-26T12:35:23.580Z,57.80
2019-02-26T12:40:28.881Z,58.11
2019-02-26T12:45:37.712Z,57.18
2019-02-26T12:50:41.200Z,57.17
2019-02-26T12:55:46.694Z,57.26
2019-02-26T13:00:52.122Z,56.34
2019-02-26T13:05:57.529Z,57.28
2019-02-26T13:11:02.851Z,56.43
2019-02-26T13:16:08.115Z,55.75
2019-02-26T13:21:16.418Z,59.02
2019-02-26T13:26:22.554Z,58.65
2019-02-26T13:31:27.276Z,62.16
2019-02-26T13:36:36.418Z,59.73
2019-02-26T13:41:39.878Z,62.37
2019-02-26T13:46:45.091Z,60.16
2019-02-26T13:51:52.205Z,61.34
2019-02-26T13:56:57.416Z,58.64
2019-02-26T14:02:02.823Z,57.62
2019-02-26T14:07:08.089Z,57.27
2019-02-26T14:12:14.261Z,57.65
2019-02-26T14:17:19.601Z,56.85
2019-02-26T14:22:25.114Z,57.10
2019-02-26T14:27:30.698Z,57.41
2019-02-26T14:32:36.146Z,58.24
2019-02-26T14:37:41.485Z,58.75
2019-02-26T14:42:46.701Z,57.61
2019-02-26T14:47:52.421Z,58.71
2019-02-26T14:52:57.755Z,59.30
2019-02-26T14:58:03.011Z,60.31
2019-02-26T15:03:08.517Z,60.80
2019-02-26T15:08:13.858Z,59.74
2019-02-26T15:13:19.326Z,58.29
2019-02-26T15:18:26.906Z,59.02
2019-02-26T15:23:32.256Z,58.75
2019-02-26T15:28:37.515Z,61.99
2019-02-26T15:33:42.857Z,63.96
2019-02-26T15:38:48.498Z,64.42
2019-02-26T15:43:54.509Z,63.37
2019-02-26T15:49:00.685Z,65.12
2019-02-26T15:54:05.991Z,63.91
2019-02-26T15:59:11.538Z,65.17
2019-02-26T16:04:16.934Z,65.22
2019-02-26T16:09:22.326Z,65.81
2019-02-26T16:14:27.757Z,66.79
2019-02-26T16:19:33.126Z,69.65
2019-02-26T16:24:38.634Z,69.65
2019-02-26T16:29:43.923Z,69.90
2019-02-26T16:34:52.308Z,71.96
2019-02-26T16:39:58.180Z,73.16
2019-02-26T16:45:03.547Z,73.95
2019-02-26T16:50:13.224Z,75.28
2019-02-26T16:55:17.880Z,76.81
2019-02-26T17:00:24.422Z,78.39
2019-02-26T17:05:30.057Z,79.44
2019-02-26T17:10:35.781Z,80.40
2019-02-26T17:15:41.155Z,81.02
2019-02-26T17:20:46.851Z,82.02
2019-02-26T17:25:52.340Z,83.02
2019-02-26T17:30:58.338Z,83.67
2019-02-26T17:36:03.960Z,84.28
2019-02-26T17:41:09.978Z,84.83
2019-02-26T17:46:16.378Z,85.32
2019-02-26T17:51:21.710Z,85.57
2019-02-26T17:56:28.797Z,85.88
2019-02-26T18:01:34.097Z,86.13
2019-02-26T18:06:39.535Z,86.70
2019-02-26T18:11:44.909Z,87.11
2019-02-26T18:16:50.238Z,87.44
2019-02-26T18:21:55.536Z,88.00
2019-02-26T18:27:01.117Z,88.74
2019-02-26T18:32:06.417Z,89.18
2019-02-26T18:37:12.057Z,89.73
2019-02-26T18:42:17.316Z,90.12
2019-02-26T18:47:23.417Z,90.63
2019-02-26T18:52:28.656Z,90.77
2019-02-26T18:57:36.856Z,91.04
2019-02-26T19:02:42.287Z,91.23
2019-02-26T19:07:50.658Z,91.57
2019-02-26T19:12:55.957Z,91.66
2019-02-26T19:18:02.660Z,91.89
2019-02-26T19:23:08.478Z,92.19
2019-02-26T19:28:13.816Z,92.29
2019-02-26T19:33:21.782Z,92.29
2019-02-26T19:38:27.661Z,92.41
2019-02-26T19:43:33.543Z,92.47
2019-02-26T19:48:39.258Z,92.20
2019-02-26T19:53:44.639Z,91.40
2019-02-26T19:58:50.030Z,90.91
2019-02-26T20:03:55.559Z,91.85
2019-02-26T20:09:01.073Z,92.52
2019-02-26T20:14:06.416Z,91.88
2019-02-26T20:19:11.817Z,91.08
2019-02-26T20:24:18.058Z,92.46
2019-02-26T20:29:23.577Z,93.58
2019-02-26T20:34:28.995Z,93.96
2019-02-26T20:39:34.657Z,94.30
2019-02-26T20:44:42.819Z,94.21
2019-02-26T20:49:47.076Z,94.58
2019-02-26T20:54:52.337Z,94.92
2019-02-26T20:59:57.636Z,95.04
2019-02-26T21:05:02.918Z,94.97
2019-02-26T21:10:08.937Z,95.15
2019-02-26T21:15:16.280Z,95.34
2019-02-26T21:20:21.619Z,95.35
2019-02-26T21:25:27.114Z,95.67
2019-02-26T21:30:32.449Z,95.74
2019-02-26T21:35:37.894Z,95.78
2019-02-26T21:40:43.319Z,95.72
2019-02-26T21:45:49.360Z,95.54
2019-02-26T21:50:55.404Z,95.51
2019-02-26T21:56:00.838Z,94.94
2019-02-26T22:01:06.237Z,94.94
2019-02-26T22:06:11.660Z,95.00
2019-02-26T22:11:18.442Z,95.04
2019-02-26T22:16:24.038Z,95.02
2019-02-26T22:21:31.350Z,95.42
2019-02-26T22:26:36.749Z,95.70
2019-02-26T22:31:42.077Z,95.61
2019-02-26T22:36:47.573Z,95.09
2019-02-26T22:41:53.026Z,95.49
2019-02-26T22:46:59.162Z,95.79
2019-02-26T22:52:04.677Z,95.95
2019-02-26T22:57:10.018Z,95.86
2019-02-26T23:02:15.516Z,95.58
2019-02-26T23:07:20.988Z,95.47
2019-02-26T23:12:26.642Z,95.61
2019-02-26T23:17:32.017Z,94.75
2019-02-26T23:22:38.497Z,94.32
2019-02-26T23:27:46.099Z,94.89
2019-02-26T23:32:50.997Z,94.68
2019-02-26T23:37:57.276Z,95.20
2019-02-26T23:43:02.537Z,95.76
2019-02-26T23:48:08.641Z,96.02
2019-02-26T23:53:14.194Z,96.23
2019-02-26T23:58:19.602Z,96.39
